Time;durP1;ratioP1;P1;durP2;ratioP2;P2;SDS_P1;SDS_P2;PMS_P1;PMS_P2;Temp;Humidity;BMP_temperature;BMP_pressure;BME280_temperature;BME280_humidity;BME280_pressure;Samples;Min_cycle;Max_cycle;Signal;HPM_P1;HPM_P2
2021/04/06 00:01:52;;;;;;;4.93;1.50;;;;;;;;;;5063296;28;20323;-66
2021/04/06 00:04:22;;;;;;;4.07;1.27;;;;;;;;;;5065839;28;20276;-66
2021/04/06 00:06:49;;;;;;;2.57;1.10;;;;;;;;;;5069944;28;20063;-66
2021/04/06 00:09:27;;;;;;;4.63;1.53;;;;;;;;;;5070272;28;20322;-66
2021/04/06 00:11:53;;;;;;;2.90;1.17;;;;;;;;;;5068447;28;20319;-66
2021/04/06 00:14:19;;;;;;;3.27;1.50;;;;;;;;;;5067881;28;20317;-66
2021/04/06 00:16:45;;;;;;;4.73;1.43;;;;;;;;;;5057516;28;20009;-66
2021/04/06 00:19:10;;;;;;;5.50;1.30;;;;;;;;;;5063922;28;20029;-66
2021/04/06 00:21:37;;;;;;;3.23;1.40;;;;;;;;;;5061121;28;20020;-66
2021/04/06 00:24:03;;;;;;;5.30;1.80;;;;;;;;;;5063234;28;20059;-66
2021/04/06 00:27:01;;;;;;;5.53;1.77;;;;;;;;;;5068336;28;20663;-66
2021/04/06 00:29:31;;;;;;;3.60;1.30;;;;;;;;;;5010973;28;20302;-66
2021/04/06 00:31:57;;;;;;;5.47;2.03;;;;;;;;;;5065259;28;20306;-66
2021/04/06 00:34:23;;;;;;;5.27;1.90;;;;;;;;;;5065656;28;20798;-66
2021/04/06 00:36:53;;;;;;;7.30;1.80;;;;;;;;;;5069086;28;20346;-66
2021/04/06 00:39:25;;;;;;;5.03;1.60;;;;;;;;;;5064761;28;20271;-66
2021/04/06 00:41:50;;;;;;;5.47;1.40;;;;;;;;;;5067758;28;20278;-66
2021/04/06 00:44:16;;;;;;;2.73;1.13;;;;;;;;;;5058450;28;20035;-66
2021/04/06 00:46:44;;;;;;;5.63;1.40;;;;;;;;;;5064755;28;20052;-66
2021/04/06 00:49:11;;;;;;;3.27;1.30;;;;;;;;;;5062611;28;20387;-66
2021/04/06 00:51:40;;;;;;;4.33;1.50;;;;;;;;;;5069112;28;20283;-67
2021/04/06 00:54:06;;;;;;;5.10;1.80;;;;;;;;;;5064017;28;20267;-66
2021/04/06 00:56:35;;;;;;;3.10;1.27;;;;;;;;;;5069301;28;20353;-66
2021/04/06 00:59:02;;;;;;;3.53;1.50;;;;;;;;;;5056186;28;20627;-66
2021/04/06 01:01:36;;;;;;;3.93;1.60;;;;;;;;;;5065314;28;20639;-66
2021/04/06 01:04:04;;;;;;;6.77;1.60;;;;;;;;;;5072608;22;20308;-83
2021/04/06 01:06:29;;;;;;;4.90;1.57;;;;;;;;;;5073472;28;20282;-83
2021/04/06 01:08:56;;;;;;;3.87;1.20;;;;;;;;;;5072960;28;20810;-83
2021/04/06 01:11:22;;;;;;;6.07;1.40;;;;;;;;;;5074268;28;20033;-83
2021/04/06 01:13:47;;;;;;;4.50;1.60;;;;;;;;;;5059318;28;20271;-83
2021/04/06 01:16:13;;;;;;;4.37;1.90;;;;;;;;;;5076450;28;20354;-83
2021/04/06 01:18:38;;;;;;;4.03;1.43;;;;;;;;;;5066995;28;20103;-83
2021/04/06 01:21:09;;;;;;;3.30;1.27;;;;;;;;;;5073259;28;20020;-83
2021/04/06 01:23:35;;;;;;;4.57;1.67;;;;;;;;;;5074081;28;20120;-83
2021/04/06 01:26:00;;;;;;;4.17;1.23;;;;;;;;;;5069583;28;20289;-83
2021/04/06 01:28:30;;;;;;;3.90;1.53;;;;;;;;;;5069207;28;20785;-83
2021/04/06 01:30:57;;;;;;;6.93;1.83;;;;;;;;;;5075470;28;20058;-83
2021/04/06 01:33:23;;;;;;;5.10;1.70;;;;;;;;;;5075964;28;20274;-83
2021/04/06 01:35:51;;;;;;;3.83;1.73;;;;;;;;;;5075646;28;20828;-83
2021/04/06 01:38:16;;;;;;;4.40;1.57;;;;;;;;;;5078533;28;20286;-83
2021/04/06 01:40:42;;;;;;;3.53;1.40;;;;;;;;;;5074174;28;20278;-83
2021/04/06 01:43:09;;;;;;;6.30;1.47;;;;;;;;;;5075923;28;20047;-83
2021/04/06 01:45:42;;;;;;;4.77;1.40;;;;;;;;;;5076927;28;20294;-83
2021/04/06 01:48:08;;;;;;;2.27;1.20;;;;;;;;;;5073706;28;20289;-83
2021/04/06 01:50:33;;;;;;;5.23;1.40;;;;;;;;;;5072437;28;20310;-83
2021/04/06 01:52:59;;;;;;;2.83;1.30;;;;;;;;;;5079986;28;20048;-83
2021/04/06 01:55:32;;;;;;;4.33;1.17;;;;;;;;;;5074110;28;20142;-83
2021/04/06 01:57:57;;;;;;;8.18;1.20;;;;;;;;;;5081231;28;20690;-84
2021/04/06 02:03:06;;;;;;;2.63;1.10;;;;;;;;;;5084214;28;20092;-83
2021/04/06 02:05:31;;;;;;;3.87;1.27;;;;;;;;;;5077220;28;20316;-83
2021/04/06 02:08:01;;;;;;;4.53;1.40;;;;;;;;;;5081061;28;20346;-83
2021/04/06 02:10:27;;;;;;;4.57;1.17;;;;;;;;;;5077972;28;20021;-83
2021/04/06 02:12:52;;;;;;;3.93;1.20;;;;;;;;;;5076499;28;20280;-83
2021/04/06 02:15:17;;;;;;;4.43;1.30;;;;;;;;;;5076771;28;20019;-83
2021/04/06 02:17:46;;;;;;;1.87;0.80;;;;;;;;;;5070930;28;20465;-83
2021/04/06 02:20:18;;;;;;;1.43;0.83;;;;;;;;;;5073545;28;20020;-84
2021/04/06 02:22:53;;;;;;;1.58;0.90;;;;;;;;;;5075740;28;20281;-83
2021/04/06 02:25:18;;;;;;;4.90;1.27;;;;;;;;;;5075221;28;20529;-83
2021/04/06 02:27:43;;;;;;;3.93;1.40;;;;;;;;;;5064963;28;20279;-84
2021/04/06 02:30:09;;;;;;;2.10;0.97;;;;;;;;;;5072747;28;20024;-83
2021/04/06 02:32:35;;;;;;;4.07;1.33;;;;;;;;;;5067266;28;20158;-84
2021/04/06 02:35:03;;;;;;;1.80;0.97;;;;;;;;;;5071982;28;20013;-83
2021/04/06 02:37:29;;;;;;;2.73;1.10;;;;;;;;;;5069522;28;20486;-83
2021/04/06 02:39:56;;;;;;;4.87;1.27;;;;;;;;;;5072633;28;20320;-83
2021/04/06 02:42:26;;;;;;;3.50;1.33;;;;;;;;;;5076276;28;20274;-84
2021/04/06 02:44:55;;;;;;;3.47;1.20;;;;;;;;;;5069721;28;20309;-83
2021/04/06 02:47:21;;;;;;;4.43;1.03;;;;;;;;;;5075355;28;20303;-83
2021/04/06 02:49:47;;;;;;;2.97;1.20;;;;;;;;;;5074619;28;20286;-80
2021/04/06 02:52:13;;;;;;;2.47;1.17;;;;;;;;;;5071007;28;20340;-80
2021/04/06 02:54:38;;;;;;;2.40;1.23;;;;;;;;;;5067946;28;20017;-81
2021/04/06 02:57:19;;;;;;;2.30;1.10;;;;;;;;;;5070597;28;20279;-83
2021/04/06 02:59:45;;;;;;;2.60;1.47;;;;;;;;;;5069941;28;20028;-83
2021/04/06 03:02:10;;;;;;;2.83;1.20;;;;;;;;;;5076777;28;20654;-83
2021/04/06 03:04:39;;;;;;;4.77;1.27;;;;;;;;;;5074288;28;20049;-84
2021/04/06 03:07:14;;;;;;;2.43;1.10;;;;;;;;;;5065567;28;20037;-84
2021/04/06 03:09:39;;;;;;;2.37;1.00;;;;;;;;;;5044108;28;20641;-83
2021/04/06 03:12:05;;;;;;;1.73;0.93;;;;;;;;;;5055518;28;20283;-83
2021/04/06 03:14:32;;;;;;;1.67;0.80;;;;;;;;;;5075985;28;20032;-84
2021/04/06 03:16:57;;;;;;;2.57;1.03;;;;;;;;;;5069854;28;20062;-84
2021/04/06 03:19:32;;;;;;;3.33;0.90;;;;;;;;;;5071579;28;20351;-84
2021/04/06 03:21:58;;;;;;;4.50;1.10;;;;;;;;;;5074807;28;20025;-83
2021/04/06 03:24:23;;;;;;;5.73;1.20;;;;;;;;;;5067822;28;20291;-84
2021/04/06 03:26:49;;;;;;;2.40;0.80;;;;;;;;;;5070914;28;20282;-84
2021/04/06 03:29:16;;;;;;;5.10;0.90;;;;;;;;;;5068317;28;20039;-84
2021/04/06 03:31:42;;;;;;;5.43;1.17;;;;;;;;;;5068043;28;20047;-84
2021/04/06 03:34:09;;;;;;;4.50;1.30;;;;;;;;;;5073054;28;20302;-84
2021/04/06 03:36:35;;;;;;;1.43;0.80;;;;;;;;;;5070065;28;20029;-85
2021/04/06 03:39:05;;;;;;;1.57;0.70;;;;;;;;;;5068220;28;20331;-84
2021/04/06 03:41:31;;;;;;;3.80;1.00;;;;;;;;;;5066415;28;20029;-84
2021/04/06 03:44:07;;;;;;;2.27;1.10;;;;;;;;;;5069261;28;20294;-84
2021/04/06 03:46:32;;;;;;;2.67;0.90;;;;;;;;;;5068530;28;20025;-84
2021/04/06 03:49:17;;;;;;;4.17;0.93;;;;;;;;;;5064090;28;20278;-84
2021/04/06 03:52:06;;;;;;;1.47;0.83;;;;;;;;;;5072582;28;20094;-83
2021/04/06 03:54:31;;;;;;;2.33;0.90;;;;;;;;;;5056178;28;20283;-84
2021/04/06 03:56:57;;;;;;;6.47;1.20;;;;;;;;;;5069114;28;20279;-84
2021/04/06 03:59:26;;;;;;;3.87;1.20;;;;;;;;;;5062479;28;20215;-83
2021/04/06 04:01:52;;;;;;;2.17;0.80;;;;;;;;;;5067931;28;20528;-83
2021/04/06 04:04:17;;;;;;;2.83;0.80;;;;;;;;;;5024313;28;705558;-84
2021/04/06 04:06:42;;;;;;;3.83;1.10;;;;;;;;;;5068697;28;20479;-84
2021/04/06 04:09:07;;;;;;;2.77;0.93;;;;;;;;;;5069327;28;20119;-83
2021/04/06 04:11:33;;;;;;;3.93;0.97;;;;;;;;;;5069474;28;20107;-83
2021/04/06 04:13:58;;;;;;;2.77;1.00;;;;;;;;;;5063755;28;20028;-83
2021/04/06 04:16:23;;;;;;;3.63;1.00;;;;;;;;;;5065932;28;20528;-83
2021/04/06 04:18:51;;;;;;;3.50;1.00;;;;;;;;;;5070073;28;20031;-83
2021/04/06 04:21:16;;;;;;;2.70;0.90;;;;;;;;;;5066745;28;20040;-83
2021/04/06 04:23:42;;;;;;;4.50;1.20;;;;;;;;;;5071182;28;20277;-84
2021/04/06 04:26:07;;;;;;;5.53;1.10;;;;;;;;;;5070820;28;20055;-84
2021/04/06 04:28:32;;;;;;;1.70;0.90;;;;;;;;;;5072376;28;20058;-83
2021/04/06 04:31:00;;;;;;;1.40;0.70;;;;;;;;;;5064284;28;20033;-83
2021/04/06 04:33:26;;;;;;;7.13;1.33;;;;;;;;;;5061944;28;20057;-83
2021/04/06 04:35:51;;;;;;;1.70;0.83;;;;;;;;;;5065669;28;20280;-83
2021/04/06 04:38:16;;;;;;;5.47;1.03;;;;;;;;;;5067179;28;20036;-83
2021/04/06 04:40:42;;;;;;;4.33;1.40;;;;;;;;;;5069579;28;20032;-84
2021/04/06 04:43:11;;;;;;;4.60;1.37;;;;;;;;;;5057651;28;20224;-84
2021/04/06 04:45:37;;;;;;;2.63;1.20;;;;;;;;;;5068360;28;20267;-84
2021/04/06 04:48:02;;;;;;;6.13;1.37;;;;;;;;;;5051311;28;20270;-84
2021/04/06 04:50:27;;;;;;;2.97;1.30;;;;;;;;;;5068506;28;20758;-84
2021/04/06 04:52:53;;;;;;;2.87;0.80;;;;;;;;;;5054329;28;20578;-84
2021/04/06 04:55:19;;;;;;;2.67;1.20;;;;;;;;;;5071020;28;20044;-84
2021/04/06 04:57:44;;;;;;;3.73;1.00;;;;;;;;;;5072338;28;20025;-84
2021/04/06 05:00:10;;;;;;;4.47;1.40;;;;;;;;;;5071903;28;20310;-85
2021/04/06 05:02:36;;;;;;;3.70;1.17;;;;;;;;;;5068102;28;20025;-85
2021/04/06 05:05:02;;;;;;;6.47;1.10;;;;;;;;;;5070471;28;20781;-85
2021/04/06 05:07:27;;;;;;;7.37;1.27;;;;;;;;;;5069409;28;20112;-85
2021/04/06 05:09:53;;;;;;;3.27;1.30;;;;;;;;;;5077745;28;20810;-84
2021/04/06 05:12:18;;;;;;;7.13;1.60;;;;;;;;;;5071419;28;20399;-84
2021/04/06 05:14:45;;;;;;;8.10;1.90;;;;;;;;;;5072034;28;20036;-83
2021/04/06 05:17:11;;;;;;;5.63;1.40;;;;;;;;;;5071772;28;20606;-84
2021/04/06 05:19:36;;;;;;;4.60;1.40;;;;;;;;;;5074180;28;20316;-83
2021/04/06 05:22:01;;;;;;;5.07;1.13;;;;;;;;;;5056151;28;20056;-83
2021/04/06 05:24:26;;;;;;;6.23;1.20;;;;;;;;;;5049160;28;20027;-82
2021/04/06 05:26:52;;;;;;;3.93;1.50;;;;;;;;;;5070952;28;20025;-84
2021/04/06 05:29:17;;;;;;;3.73;1.20;;;;;;;;;;5066509;28;20108;-84
2021/04/06 05:31:43;;;;;;;3.40;1.20;;;;;;;;;;5074195;28;20064;-84
2021/04/06 05:34:08;;;;;;;7.30;1.60;;;;;;;;;;5052876;28;20385;-83
2021/04/06 05:36:33;;;;;;;1.83;1.00;;;;;;;;;;5071308;28;20013;-84
2021/04/06 05:38:58;;;;;;;4.93;1.10;;;;;;;;;;5074296;28;20444;-84
2021/04/06 05:41:25;;;;;;;4.30;1.00;;;;;;;;;;5067180;28;20104;-84
2021/04/06 05:43:55;;;;;;;2.70;1.20;;;;;;;;;;5075907;28;20025;-84
2021/04/06 05:46:21;;;;;;;2.83;1.23;;;;;;;;;;5069094;28;20325;-84
2021/04/06 05:48:47;;;;;;;2.50;0.90;;;;;;;;;;5072685;28;20310;-83
2021/04/06 05:51:15;;;;;;;2.93;0.80;;;;;;;;;;5068990;28;20321;-83
2021/04/06 05:53:40;;;;;;;3.43;0.93;;;;;;;;;;5072890;28;20020;-83
2021/04/06 05:56:07;;;;;;;2.13;1.30;;;;;;;;;;5069380;28;20335;-83
2021/04/06 05:58:32;;;;;;;2.57;0.90;;;;;;;;;;5078560;28;20071;-83
2021/04/06 06:00:58;;;;;;;4.30;0.80;;;;;;;;;;5069520;28;20494;-84
2021/04/06 06:03:24;;;;;;;4.03;0.60;;;;;;;;;;5070634;28;20019;-84
2021/04/06 06:05:49;;;;;;;5.20;1.00;;;;;;;;;;5073859;28;20350;-84
2021/04/06 06:08:15;;;;;;;6.17;0.80;;;;;;;;;;5068330;28;20021;-84
2021/04/06 06:10:41;;;;;;;2.07;0.80;;;;;;;;;;5072783;28;20443;-84
2021/04/06 06:13:25;;;;;;;3.10;0.80;;;;;;;;;;5070970;28;20279;-84
2021/04/06 06:16:07;;;;;;;5.63;1.37;;;;;;;;;;5072308;28;20473;-85
2021/04/06 06:18:32;;;;;;;2.77;0.87;;;;;;;;;;5072263;28;20354;-85
2021/04/06 06:20:58;;;;;;;4.00;1.20;;;;;;;;;;5077530;28;20342;-85
2021/04/06 06:23:24;;;;;;;4.77;0.90;;;;;;;;;;5061547;28;20111;-85
2021/04/06 06:26:04;;;;;;;2.20;0.80;;;;;;;;;;5069601;28;20373;-83
2021/04/06 06:28:29;;;;;;;2.60;1.30;;;;;;;;;;5054899;28;20445;-83
2021/04/06 06:30:56;;;;;;;2.57;0.90;;;;;;;;;;5074699;28;20317;-84
2021/04/06 06:33:27;;;;;;;8.23;1.57;;;;;;;;;;5070469;28;20751;-84
2021/04/06 06:35:52;;;;;;;7.83;1.43;;;;;;;;;;5064758;28;20263;-85
2021/04/06 06:38:25;;;;;;;11.47;3.37;;;;;;;;;;5073140;28;20247;-85
2021/04/06 06:40:54;;;;;;;5.27;1.40;;;;;;;;;;5069726;28;20476;-84
2021/04/06 06:43:21;;;;;;;5.77;0.83;;;;;;;;;;5071913;28;20262;-84
2021/04/06 06:45:48;;;;;;;6.47;1.40;;;;;;;;;;5072879;28;20320;-84
2021/04/06 06:48:30;;;;;;;10.80;1.33;;;;;;;;;;5064174;28;20251;-84
2021/04/06 06:50:56;;;;;;;7.90;1.23;;;;;;;;;;5076000;28;20275;-84
2021/04/06 06:53:37;;;;;;;5.27;1.33;;;;;;;;;;5071897;28;20458;-85
2021/04/06 06:56:06;;;;;;;7.77;1.63;;;;;;;;;;5076063;28;20324;-84
2021/04/06 06:58:35;;;;;;;6.00;1.80;;;;;;;;;;5070809;28;20251;-84
2021/04/06 07:01:01;;;;;;;4.43;1.00;;;;;;;;;;5057445;28;20335;-84
2021/04/06 07:03:26;;;;;;;4.20;0.90;;;;;;;;;;5074931;28;20522;-84
2021/04/06 07:05:52;;;;;;;3.33;1.20;;;;;;;;;;5074597;28;20074;-84
2021/04/06 07:08:30;;;;;;;5.30;2.30;;;;;;;;;;5070180;28;20032;-84
2021/04/06 07:10:56;;;;;;;2.73;0.67;;;;;;;;;;5068030;28;20488;-84
2021/04/06 07:13:24;;;;;;;4.70;1.07;;;;;;;;;;5070672;28;20016;-85
2021/04/06 07:15:51;;;;;;;5.90;1.30;;;;;;;;;;5067917;28;20023;-85
2021/04/06 07:18:18;;;;;;;3.60;0.97;;;;;;;;;;5068051;28;20017;-85
2021/04/06 07:21:03;;;;;;;5.80;0.90;;;;;;;;;;5070698;28;20460;-86
2021/04/06 07:23:37;;;;;;;2.20;0.70;;;;;;;;;;5073742;28;20020;-86
2021/04/06 07:26:13;;;;;;;5.33;1.13;;;;;;;;;;5074464;28;20016;-86
2021/04/06 07:28:39;;;;;;;5.63;0.90;;;;;;;;;;5072511;28;20021;-84
2021/04/06 07:31:05;;;;;;;7.90;1.80;;;;;;;;;;5068693;28;20073;-85
2021/04/06 07:33:31;;;;;;;4.63;0.90;;;;;;;;;;5065852;28;20498;-85
2021/04/06 07:35:59;;;;;;;3.97;0.90;;;;;;;;;;5073054;28;20385;-86
2021/04/06 07:38:24;;;;;;;1.40;0.60;;;;;;;;;;5076680;28;20008;-85
2021/04/06 07:40:51;;;;;;;1.80;0.77;;;;;;;;;;5067579;28;20035;-84
2021/04/06 07:43:16;;;;;;;3.63;0.73;;;;;;;;;;5073212;28;20055;-85
2021/04/06 07:45:43;;;;;;;2.87;1.10;;;;;;;;;;5074514;28;20028;-84
2021/04/06 07:48:09;;;;;;;2.47;0.90;;;;;;;;;;5068249;28;20036;-84
2021/04/06 07:50:34;;;;;;;6.10;1.23;;;;;;;;;;5073560;28;20031;-83
2021/04/06 07:53:19;;;;;;;6.80;1.00;;;;;;;;;;5052042;28;20021;-83
2021/04/06 07:55:44;;;;;;;5.70;1.33;;;;;;;;;;5067023;28;20020;-83
2021/04/06 07:58:09;;;;;;;2.43;0.80;;;;;;;;;;5066087;28;20025;-83
2021/04/06 08:00:47;;;;;;;4.23;0.80;;;;;;;;;;5068648;28;20021;-83
2021/04/06 08:03:13;;;;;;;6.57;1.80;;;;;;;;;;5075742;28;20107;-83
2021/04/06 08:05:38;;;;;;;2.90;0.93;;;;;;;;;;5070441;28;20072;-83
2021/04/06 08:08:22;;;;;;;1.87;0.80;;;;;;;;;;5068513;28;20020;-83
2021/04/06 08:10:47;;;;;;;4.07;1.03;;;;;;;;;;5061036;28;20063;-83
2021/04/06 08:13:12;;;;;;;4.07;1.00;;;;;;;;;;5052765;28;20279;-83
2021/04/06 08:15:38;;;;;;;3.90;1.00;;;;;;;;;;5064313;28;20020;-82
2021/04/06 08:18:04;;;;;;;4.47;1.00;;;;;;;;;;5072933;28;20482;-83
2021/04/06 08:20:29;;;;;;;4.07;1.50;;;;;;;;;;5071533;28;20024;-83
2021/04/06 08:22:55;;;;;;;4.43;0.80;;;;;;;;;;5073719;28;20349;-84
2021/04/06 08:25:23;;;;;;;4.10;0.70;;;;;;;;;;5069030;28;20060;-84
2021/04/06 08:27:56;;;;;;;1.00;0.70;;;;;;;;;;5074203;28;20137;-83
2021/04/06 08:30:27;;;;;;;;;;;;;;;;;;5073208;28;20346;-84
2021/04/06 08:33:01;;;;;;;1.43;0.80;;;;;;;;;;5064168;28;20365;-84
2021/04/06 08:38:25;;;;;;;1.97;0.80;;;;;;;;;;5066620;28;20262;-85
2021/04/06 08:41:04;;;;;;;3.00;0.80;;;;;;;;;;5065502;28;20259;-85
2021/04/06 08:43:30;;;;;;;2.57;0.80;;;;;;;;;;5071699;28;20652;-84
2021/04/06 08:45:55;;;;;;;2.27;0.97;;;;;;;;;;5068417;28;20028;-85
2021/04/06 08:48:56;;;;;;;3.60;0.70;;;;;;;;;;5064956;28;20540;-85
2021/04/06 08:51:27;;;;;;;1.43;0.60;;;;;;;;;;5020061;28;20029;-85
2021/04/06 08:53:54;;;;;;;4.07;1.00;;;;;;;;;;5060972;28;20040;-85
2021/04/06 08:56:22;;;;;;;3.30;0.70;;;;;;;;;;5076027;28;20012;-84
2021/04/06 08:58:47;;;;;;;1.53;0.67;;;;;;;;;;5072309;28;20483;-85
2021/04/06 09:01:13;;;;;;;4.00;1.57;;;;;;;;;;5073306;28;20032;-84
2021/04/06 09:03:38;;;;;;;5.30;0.93;;;;;;;;;;5076898;28;20431;-82
2021/04/06 09:06:08;;;;;;;3.10;0.77;;;;;;;;;;5055414;28;20119;-81
2021/04/06 09:08:45;;;;;;;1.73;0.83;;;;;;;;;;5066047;28;20450;-82
2021/04/06 09:11:11;;;;;;;4.20;0.90;;;;;;;;;;5068430;28;20033;-82
2021/04/06 09:13:36;;;;;;;6.67;0.60;;;;;;;;;;5067377;28;20028;-82
2021/04/06 09:16:02;;;;;;;8.53;1.37;;;;;;;;;;5066722;28;20052;-85
2021/04/06 09:18:33;;;;;;;2.77;0.80;;;;;;;;;;5065610;28;20059;-84
2021/04/06 09:20:59;;;;;;;2.00;0.77;;;;;;;;;;5066227;28;20031;-85
2021/04/06 09:23:27;;;;;;;3.73;0.60;;;;;;;;;;5061625;28;20036;-85
2021/04/06 09:25:52;;;;;;;5.57;0.97;;;;;;;;;;5067524;28;20063;-86
2021/04/06 09:28:18;;;;;;;2.63;0.70;;;;;;;;;;5070900;28;20045;-87
2021/04/06 09:30:44;;;;;;;5.63;1.13;;;;;;;;;;5063632;28;20083;-84
2021/04/06 09:33:14;;;;;;;2.60;1.00;;;;;;;;;;5064044;28;20024;-85
2021/04/06 09:35:44;;;;;;;3.90;0.87;;;;;;;;;;5062627;28;20483;-84
2021/04/06 09:38:09;;;;;;;2.83;0.70;;;;;;;;;;5060896;28;20027;-84
2021/04/06 09:40:37;;;;;;;3.37;0.80;;;;;;;;;;5063638;28;20029;-84
2021/04/06 09:43:02;;;;;;;3.40;1.30;;;;;;;;;;5070848;28;20101;-84
2021/04/06 09:45:28;;;;;;;2.33;0.80;;;;;;;;;;5064914;28;20021;-85
2021/04/06 09:47:54;;;;;;;2.20;0.80;;;;;;;;;;5055334;28;20060;-87
2021/04/06 09:50:19;;;;;;;2.80;0.90;;;;;;;;;;5058967;28;20028;-87
2021/04/06 09:52:45;;;;;;;4.27;0.87;;;;;;;;;;5067440;28;20028;-86
2021/04/06 09:55:11;;;;;;;3.10;0.80;;;;;;;;;;5068797;28;20025;-84
2021/04/06 09:57:37;;;;;;;2.10;0.67;;;;;;;;;;5073259;28;20372;-84
2021/04/06 10:00:07;;;;;;;1.43;0.70;;;;;;;;;;5063075;28;20035;-85
2021/04/06 10:02:32;;;;;;;5.80;1.10;;;;;;;;;;5072098;28;20028;-85
2021/04/06 10:04:58;;;;;;;3.33;1.00;;;;;;;;;;5064526;28;20546;-84
2021/04/06 10:07:24;;;;;;;2.90;0.80;;;;;;;;;;5069209;28;20025;-84
2021/04/06 10:09:51;;;;;;;4.33;1.10;;;;;;;;;;5068749;28;20035;-83
2021/04/06 10:12:17;;;;;;;6.63;1.13;;;;;;;;;;5067994;28;20024;-83
2021/04/06 10:14:43;;;;;;;4.80;1.50;;;;;;;;;;5045414;28;20078;-83
2021/04/06 10:17:10;;;;;;;2.23;0.70;;;;;;;;;;5077020;28;20040;-83
2021/04/06 10:19:37;;;;;;;1.40;0.60;;;;;;;;;;5064568;28;20021;-83
2021/04/06 10:22:05;;;;;;;2.03;0.90;;;;;;;;;;5062983;28;20263;-84
2021/04/06 10:24:31;;;;;;;2.13;1.17;;;;;;;;;;5073593;28;20381;-84
2021/04/06 10:27:22;;;;;;;1.83;0.70;;;;;;;;;;5068543;28;20274;-84
2021/04/06 10:29:52;;;;;;;4.27;1.40;;;;;;;;;;5064795;28;20270;-83
2021/04/06 10:32:25;;;;;;;1.60;0.77;;;;;;;;;;5060089;28;20311;-83
2021/04/06 10:34:52;;;;;;;1.90;0.97;;;;;;;;;;5069354;28;20294;-84
2021/04/06 10:37:19;;;;;;;8.27;1.07;;;;;;;;;;5062203;28;20259;-84
2021/04/06 10:39:44;;;;;;;1.77;0.97;;;;;;;;;;5074707;28;20325;-83
2021/04/06 10:42:11;;;;;;;3.93;1.20;;;;;;;;;;5066434;28;20255;-84
2021/04/06 10:44:37;;;;;;;2.67;1.10;;;;;;;;;;5072306;28;20047;-86
2021/04/06 10:47:02;;;;;;;4.27;1.00;;;;;;;;;;5069995;28;20255;-83
2021/04/06 10:49:28;;;;;;;5.37;1.20;;;;;;;;;;5053442;28;20024;-86
2021/04/06 10:51:54;;;;;;;3.37;1.13;;;;;;;;;;5070422;28;20032;-86
2021/04/06 10:54:20;;;;;;;3.60;0.90;;;;;;;;;;5066874;28;20472;-85
2021/04/06 10:56:47;;;;;;;2.00;0.90;;;;;;;;;;5066721;28;20312;-86
2021/04/06 10:59:13;;;;;;;2.73;1.10;;;;;;;;;;5075284;28;20055;-85
2021/04/06 11:01:41;;;;;;;5.07;1.50;;;;;;;;;;5067014;28;20724;-85
2021/04/06 11:04:09;;;;;;;3.00;1.00;;;;;;;;;;5059711;28;20310;-84
2021/04/06 11:06:36;;;;;;;2.67;1.00;;;;;;;;;;5047519;28;20778;-84
2021/04/06 11:09:10;;;;;;;10.10;1.47;;;;;;;;;;5073720;28;20273;-84
2021/04/06 11:11:35;;;;;;;6.00;1.30;;;;;;;;;;5072890;28;20287;-84
2021/04/06 11:14:05;;;;;;;4.90;1.50;;;;;;;;;;5066003;28;20750;-85
2021/04/06 11:16:31;;;;;;;4.83;1.53;;;;;;;;;;5063801;28;20024;-84
2021/04/06 11:18:57;;;;;;;5.07;1.63;;;;;;;;;;5080559;28;20872;-85
2021/04/06 11:21:22;;;;;;;4.93;1.30;;;;;;;;;;5072991;28;20016;-86
2021/04/06 11:23:48;;;;;;;3.10;0.97;;;;;;;;;;5073420;28;20741;-84
2021/04/06 11:26:14;;;;;;;3.30;0.90;;;;;;;;;;5077738;28;20056;-85
2021/04/06 11:28:39;;;;;;;5.23;1.10;;;;;;;;;;5077039;28;20028;-84
2021/04/06 11:31:05;;;;;;;5.30;1.13;;;;;;;;;;5071894;28;20858;-83
2021/04/06 11:33:30;;;;;;;2.73;0.80;;;;;;;;;;5064838;28;20028;-83
2021/04/06 11:35:55;;;;;;;3.67;0.80;;;;;;;;;;5072960;28;20167;-81
2021/04/06 11:38:20;;;;;;;7.57;1.30;;;;;;;;;;5069683;28;20522;-84
2021/04/06 11:40:46;;;;;;;5.37;1.33;;;;;;;;;;5066649;28;20123;-84
2021/04/06 11:43:11;;;;;;;4.33;1.23;;;;;;;;;;5073831;28;20033;-84
2021/04/06 11:45:36;;;;;;;3.30;1.10;;;;;;;;;;5073213;28;20089;-83
2021/04/06 11:48:02;;;;;;;2.07;1.40;;;;;;;;;;5072161;28;20025;-84
2021/04/06 11:50:27;;;;;;;2.77;1.03;;;;;;;;;;5068698;28;20029;-82
2021/04/06 11:52:52;;;;;;;2.53;0.80;;;;;;;;;;5071904;28;20105;-82
2021/04/06 11:55:18;;;;;;;1.30;0.80;;;;;;;;;;5078517;28;20023;-82
2021/04/06 11:57:45;;;;;;;2.87;0.70;;;;;;;;;;5079531;28;20040;-82
2021/04/06 12:00:10;;;;;;;0.80;0.60;;;;;;;;;;5071183;28;20032;-81
2021/04/06 12:02:36;;;;;;;1.67;0.90;;;;;;;;;;5071474;28;20262;-83
2021/04/06 12:05:01;;;;;;;1.90;0.63;;;;;;;;;;5066974;28;20390;-84
2021/04/06 12:07:26;;;;;;;1.53;0.80;;;;;;;;;;5074035;28;20076;-83
2021/04/06 12:09:52;;;;;;;2.90;1.07;;;;;;;;;;5068521;28;20017;-83
2021/04/06 12:12:17;;;;;;;1.77;0.80;;;;;;;;;;5076498;28;20544;-83
2021/04/06 12:14:43;;;;;;;2.00;0.80;;;;;;;;;;5072345;28;20028;-83
2021/04/06 12:17:08;;;;;;;5.17;1.00;;;;;;;;;;5073962;28;20012;-84
2021/04/06 12:19:33;;;;;;;3.77;0.60;;;;;;;;;;5076503;28;20020;-84
2021/04/06 12:21:59;;;;;;;4.20;0.90;;;;;;;;;;5073203;28;20074;-83
2021/04/06 12:24:24;;;;;;;2.23;0.80;;;;;;;;;;5070780;28;20028;-81
2021/04/06 12:26:55;;;;;;;2.40;0.83;;;;;;;;;;5080331;28;20032;-81
2021/04/06 12:29:20;;;;;;;3.03;1.00;;;;;;;;;;5074105;28;20033;-81
2021/04/06 12:31:46;;;;;;;6.10;1.53;;;;;;;;;;5075719;28;20634;-84
2021/04/06 12:34:11;;;;;;;2.50;0.87;;;;;;;;;;5049665;28;20100;-84
2021/04/06 12:36:36;;;;;;;3.17;0.87;;;;;;;;;;5067314;28;20230;-84
2021/04/06 12:39:03;;;;;;;3.50;0.50;;;;;;;;;;5067352;28;20028;-83
2021/04/06 12:41:28;;;;;;;3.87;0.63;;;;;;;;;;5065389;28;20036;-84
2021/04/06 12:43:53;;;;;;;1.80;0.63;;;;;;;;;;5068110;28;20492;-83
2021/04/06 12:46:18;;;;;;;2.73;1.30;;;;;;;;;;5061019;28;20028;-84
2021/04/06 12:48:44;;;;;;;4.47;0.93;;;;;;;;;;5065743;28;20020;-83
2021/04/06 12:51:09;;;;;;;7.33;0.87;;;;;;;;;;5070127;28;20103;-84
2021/04/06 12:53:34;;;;;;;3.57;1.00;;;;;;;;;;5061408;28;20472;-84
2021/04/06 12:56:00;;;;;;;4.80;0.90;;;;;;;;;;5070048;28;20031;-83
2021/04/06 12:58:25;;;;;;;1.57;0.70;;;;;;;;;;5066347;28;20361;-83
2021/04/06 13:00:50;;;;;;;2.73;1.10;;;;;;;;;;5067755;28;20070;-84
2021/04/06 13:03:16;;;;;;;2.50;0.80;;;;;;;;;;5070119;28;20418;-83
2021/04/06 13:05:41;;;;;;;4.83;1.10;;;;;;;;;;5071702;28;20044;-84
2021/04/06 13:08:10;;;;;;;3.13;1.13;;;;;;;;;;5063451;28;20008;-84
2021/04/06 13:10:39;;;;;;;3.07;1.00;;;;;;;;;;5058709;28;20025;-84
2021/04/06 13:13:04;;;;;;;4.77;1.17;;;;;;;;;;5061880;28;20362;-84
2021/04/06 13:15:29;;;;;;;1.03;0.90;;;;;;;;;;5070484;28;20298;-83
2021/04/06 13:17:54;;;;;;;1.83;1.07;;;;;;;;;;5066279;28;20457;-83
2021/04/06 13:20:20;;;;;;;2.00;1.07;;;;;;;;;;5069696;28;20020;-84
2021/04/06 13:22:45;;;;;;;2.67;1.13;;;;;;;;;;5070083;28;20021;-85
2021/04/06 13:25:11;;;;;;;5.57;1.17;;;;;;;;;;5066962;28;20087;-85
2021/04/06 13:27:37;;;;;;;4.07;1.20;;;;;;;;;;5056192;28;20025;-85
2021/04/06 13:30:04;;;;;;;1.40;1.03;;;;;;;;;;5068231;28;20022;-84
2021/04/06 13:32:29;;;;;;;1.43;0.80;;;;;;;;;;5067349;28;20055;-84
2021/04/06 13:34:54;;;;;;;2.87;1.00;;;;;;;;;;5065650;28;20652;-84
2021/04/06 13:37:20;;;;;;;2.30;1.00;;;;;;;;;;5066160;28;20075;-84
2021/04/06 13:39:45;;;;;;;1.40;0.80;;;;;;;;;;5070258;28;20039;-84
2021/04/06 13:42:10;;;;;;;1.73;0.77;;;;;;;;;;5071110;28;20085;-84
2021/04/06 13:44:37;;;;;;;6.60;1.00;;;;;;;;;;5067898;28;20032;-84
2021/04/06 13:47:03;;;;;;;1.27;0.60;;;;;;;;;;5065704;28;20074;-84
2021/04/06 13:49:28;;;;;;;2.33;0.80;;;;;;;;;;5076096;28;20271;-84
2021/04/06 13:51:54;;;;;;;3.00;0.97;;;;;;;;;;5063460;28;20291;-84
2021/04/06 13:54:19;;;;;;;4.73;1.20;;;;;;;;;;5063261;28;20022;-84
2021/04/06 13:56:44;;;;;;;2.67;0.80;;;;;;;;;;5068025;28;20144;-84
2021/04/06 13:59:09;;;;;;;4.87;1.47;;;;;;;;;;5048882;28;20021;-84
2021/04/06 14:01:35;;;;;;;1.40;0.60;;;;;;;;;;5068420;28;20044;-85
2021/04/06 14:04:00;;;;;;;3.10;1.00;;;;;;;;;;5068800;28;20386;-84
2021/04/06 14:06:25;;;;;;;6.17;0.80;;;;;;;;;;5073571;28;20028;-84
2021/04/06 14:08:50;;;;;;;2.80;0.90;;;;;;;;;;5074408;28;20035;-84
2021/04/06 14:11:16;;;;;;;3.83;0.60;;;;;;;;;;5066108;28;20024;-83
2021/04/06 14:13:42;;;;;;;3.83;0.90;;;;;;;;;;5066040;28;20563;-84
2021/04/06 14:16:07;;;;;;;3.17;1.20;;;;;;;;;;5074143;28;20047;-83
2021/04/06 14:18:33;;;;;;;7.83;1.27;;;;;;;;;;5070885;28;20072;-85
2021/04/06 14:20:58;;;;;;;6.37;0.90;;;;;;;;;;5067215;28;20013;-85
2021/04/06 14:23:28;;;;;;;3.03;0.63;;;;;;;;;;5063729;28;20567;-83
2021/04/06 14:25:54;;;;;;;4.20;0.73;;;;;;;;;;5070643;28;20037;-83
2021/04/06 14:28:20;;;;;;;4.93;0.60;;;;;;;;;;5064402;28;20067;-83
2021/04/06 14:30:46;;;;;;;3.03;0.93;;;;;;;;;;5070939;28;20087;-83
2021/04/06 14:33:12;;;;;;;3.03;0.90;;;;;;;;;;5073640;28;20025;-84
2021/04/06 14:35:37;;;;;;;1.93;0.60;;;;;;;;;;5069275;28;20471;-84
2021/04/06 14:38:03;;;;;;;3.93;0.80;;;;;;;;;;5058077;28;20021;-84
2021/04/06 14:40:28;;;;;;;4.83;0.90;;;;;;;;;;5066204;28;20020;-84
2021/04/06 14:43:14;;;;;;;1.47;0.60;;;;;;;;;;5060495;28;20150;-84
2021/04/06 14:45:40;;;;;;;1.43;0.67;;;;;;;;;;5068548;28;20117;-84
2021/04/06 14:48:06;;;;;;;12.70;1.60;;;;;;;;;;5059839;28;20271;-84
2021/04/06 14:50:31;;;;;;;2.30;1.00;;;;;;;;;;5072183;28;20282;-84